createdAt,value
2023-09-13T00:02:11.314Z,42.50
2023-09-13T00:04:38.165Z,42.57
2023-09-13T00:07:04.931Z,42.90
2023-09-13T00:09:31.751Z,42.77
2023-09-13T00:11:58.384Z,42.58
2023-09-13T00:14:25.196Z,42.79
2023-09-13T00:16:53.255Z,42.44
2023-09-13T00:19:20.101Z,42.38
2023-09-13T00:21:46.764Z,42.91
2023-09-13T00:24:13.508Z,42.60
2023-09-13T00:26:40.170Z,42.25
2023-09-13T00:29:06.841Z,42.15
2023-09-13T00:31:34.000Z,42.38
2023-09-13T00:34:02.146Z,42.19
2023-09-13T00:36:28.855Z,42.23
2023-09-13T00:38:55.547Z,42.10
2023-09-13T00:41:22.229Z,42.64
2023-09-13T00:43:48.933Z,43.54
2023-09-13T00:46:15.703Z,44.36
2023-09-13T00:48:42.847Z,43.54
2023-09-13T00:51:10.893Z,43.35
2023-09-13T00:53:37.594Z,43.20
2023-09-13T00:56:04.612Z,43.29
2023-09-13T00:58:31.412Z,43.54
2023-09-13T01:00:58.132Z,43.83
2023-09-13T01:03:24.996Z,43.98
2023-09-13T01:05:51.797Z,44.13
2023-09-13T01:08:19.847Z,43.94
2023-09-13T01:10:46.871Z,44.32
2023-09-13T01:13:13.624Z,44.21
2023-09-13T01:15:44.653Z,44.39
2023-09-13T01:18:13.946Z,44.34
2023-09-13T01:20:49.663Z,44.69
2023-09-13T01:23:34.100Z,44.32
2023-09-13T01:26:06.799Z,44.96
2023-09-13T01:28:36.203Z,44.68
2023-09-13T01:31:04.875Z,44.42
2023-09-13T01:33:31.564Z,44.50
2023-09-13T01:35:58.296Z,44.62
2023-09-13T01:38:24.997Z,44.12
2023-09-13T01:40:52.045Z,44.57
2023-09-13T01:43:19.000Z,44.36
2023-09-13T01:45:47.233Z,44.63
2023-09-13T01:48:13.977Z,44.50
2023-09-13T01:50:40.771Z,45.55
2023-09-13T01:53:07.432Z,46.31
2023-09-13T01:55:34.761Z,47.71
2023-09-13T01:58:01.636Z,48.17
2023-09-13T02:00:28.404Z,48.11
2023-09-13T02:02:56.400Z,49.49
2023-09-13T02:05:23.235Z,51.26
2023-09-13T02:07:49.946Z,50.82
2023-09-13T02:10:16.819Z,51.13
2023-09-13T02:12:43.646Z,51.82
2023-09-13T02:15:10.924Z,52.08
2023-09-13T02:17:37.693Z,51.77
2023-09-13T02:20:07.474Z,52.51
2023-09-13T02:22:35.157Z,52.70
2023-09-13T02:25:01.932Z,53.35
2023-09-13T02:27:29.539Z,52.56
2023-09-13T02:29:56.228Z,52.69
2023-09-13T02:32:22.942Z,52.56
2023-09-13T02:34:49.583Z,53.44
2023-09-13T02:37:17.666Z,53.59
2023-09-13T02:39:44.534Z,54.12
2023-09-13T02:42:11.296Z,53.08
2023-09-13T02:44:38.660Z,54.30
2023-09-13T02:47:05.542Z,54.73
2023-09-13T02:49:33.055Z,55.42
2023-09-13T02:51:59.847Z,55.11
2023-09-13T02:54:27.953Z,55.12
2023-09-13T02:56:54.659Z,54.78
2023-09-13T02:59:21.456Z,55.06
2023-09-13T03:01:49.028Z,55.12
2023-09-13T03:04:16.168Z,54.58
2023-09-13T03:06:43.064Z,55.17
2023-09-13T03:09:09.856Z,55.36
2023-09-13T03:11:38.845Z,55.32
2023-09-13T03:14:05.645Z,55.03
2023-09-13T03:16:32.825Z,55.16
2023-09-13T03:18:59.783Z,55.62
2023-09-13T03:21:32.854Z,55.92
2023-09-13T03:23:59.651Z,55.80
2023-09-13T03:26:26.538Z,55.15
2023-09-13T03:28:56.288Z,55.71
2023-09-13T03:31:24.506Z,55.64
2023-09-13T03:33:53.094Z,55.54
2023-09-13T03:36:20.074Z,55.98
2023-09-13T03:38:50.151Z,55.94
2023-09-13T03:41:21.386Z,55.45
2023-09-13T03:43:48.346Z,55.38
2023-09-13T03:46:16.411Z,55.57
2023-09-13T03:48:45.097Z,55.56
2023-09-13T03:51:12.952Z,55.39
2023-09-13T03:53:39.669Z,55.50
2023-09-13T03:56:07.293Z,55.89
2023-09-13T03:58:35.694Z,55.53
2023-09-13T04:01:02.605Z,56.65
2023-09-13T04:03:30.724Z,56.28
2023-09-13T04:05:57.526Z,56.14
2023-09-13T04:08:24.242Z,55.03
2023-09-13T04:10:50.929Z,55.89
2023-09-13T04:13:19.194Z,55.25
2023-09-13T04:15:46.073Z,54.70
2023-09-13T04:18:13.414Z,55.19
2023-09-13T04:20:42.981Z,55.84
2023-09-13T04:23:09.703Z,55.71
2023-09-13T04:25:37.653Z,55.53
2023-09-13T04:28:06.922Z,55.69
2023-09-13T04:30:34.219Z,56.13
2023-09-13T04:33:02.157Z,56.06
2023-09-13T04:35:28.938Z,56.11
2023-09-13T04:37:56.964Z,55.80
2023-09-13T04:40:23.713Z,56.20
2023-09-13T04:42:55.950Z,55.64
2023-09-13T04:45:23.325Z,55.58
2023-09-13T04:47:50.140Z,55.77
2023-09-13T04:50:16.873Z,55.33
2023-09-13T04:52:43.809Z,55.91
2023-09-13T04:55:12.255Z,55.99
2023-09-13T04:57:39.059Z,55.84
2023-09-13T05:00:06.898Z,56.11
2023-09-13T05:02:33.678Z,56.50
2023-09-13T05:05:00.549Z,56.22
2023-09-13T05:07:27.300Z,56.64
2023-09-13T05:09:54.243Z,56.94
2023-09-13T05:12:22.756Z,56.54
2023-09-13T05:14:49.431Z,57.22
2023-09-13T05:17:16.160Z,56.96
2023-09-13T05:19:42.918Z,56.33
2023-09-13T05:22:09.611Z,57.42
2023-09-13T05:24:36.362Z,56.85
2023-09-13T05:27:03.088Z,56.87
2023-09-13T05:29:31.089Z,56.54
2023-09-13T05:31:59.167Z,56.82
2023-09-13T05:34:26.148Z,56.86
2023-09-13T05:36:52.899Z,57.01
2023-09-13T05:39:19.573Z,56.86
2023-09-13T05:41:46.238Z,56.18
2023-09-13T05:44:18.956Z,56.18
2023-09-13T05:46:47.167Z,56.90
2023-09-13T05:49:13.979Z,56.85
2023-09-13T05:51:41.723Z,56.54
2023-09-13T05:54:08.379Z,56.75
2023-09-13T05:56:35.069Z,56.93
2023-09-13T05:59:01.735Z,57.22
2023-09-13T06:01:28.493Z,57.96
2023-09-13T06:03:56.655Z,57.42
2023-09-13T06:06:23.619Z,57.13
2023-09-13T06:08:50.302Z,57.68
2023-09-13T06:11:16.971Z,57.63
2023-09-13T06:13:43.956Z,58.45
2023-09-13T06:16:10.956Z,57.81
2023-09-13T06:18:38.013Z,57.95
2023-09-13T06:21:06.409Z,58.17
2023-09-13T06:23:34.153Z,57.87
2023-09-13T06:26:00.950Z,57.71
2023-09-13T06:28:27.784Z,57.38
2023-09-13T06:31:02.572Z,57.52
2023-09-13T06:33:40.301Z,57.64
2023-09-13T06:36:10.576Z,57.62
2023-09-13T06:38:37.851Z,57.33
2023-09-13T06:41:04.766Z,58.07
2023-09-13T06:43:33.526Z,57.46
2023-09-13T06:46:06.269Z,57.81
2023-09-13T06:48:34.397Z,58.63
2023-09-13T06:51:47.401Z,58.10
2023-09-13T06:53:51.810Z,58.48
2023-09-13T06:56:21.097Z,59.18
2023-09-13T06:58:51.704Z,59.02
2023-09-13T07:01:35.301Z,58.58
2023-09-13T07:04:09.405Z,57.92
2023-09-13T07:06:39.166Z,58.78
2023-09-13T07:09:07.285Z,58.48
2023-09-13T07:11:34.046Z,58.65
2023-09-13T07:14:00.739Z,58.48
2023-09-13T07:16:27.660Z,57.97
2023-09-13T07:18:54.403Z,58.04
2023-09-13T07:21:21.053Z,57.14
2023-09-13T07:23:47.688Z,57.60
2023-09-13T07:26:15.692Z,57.37
2023-09-13T07:28:42.786Z,57.20
2023-09-13T07:31:10.016Z,57.23
2023-09-13T07:33:36.797Z,56.67
2023-09-13T07:36:03.566Z,56.58
2023-09-13T07:38:30.224Z,56.44
2023-09-13T07:40:57.073Z,56.61
2023-09-13T07:43:25.235Z,56.06
2023-09-13T07:45:52.012Z,56.90
2023-09-13T07:48:18.801Z,56.97
2023-09-13T07:50:45.629Z,57.50
2023-09-13T07:53:12.794Z,57.92
2023-09-13T07:55:39.582Z,57.88
2023-09-13T07:58:06.621Z,57.89
2023-09-13T08:00:34.803Z,57.62
2023-09-13T08:03:01.776Z,57.86
2023-09-13T08:05:28.544Z,57.74
2023-09-13T08:07:55.331Z,57.94
2023-09-13T08:10:22.044Z,58.87
2023-09-13T08:12:48.829Z,58.99
2023-09-13T08:15:15.555Z,58.91
2023-09-13T08:17:43.666Z,58.73
2023-09-13T08:20:11.138Z,58.85
2023-09-13T08:22:40.411Z,58.50
2023-09-13T08:25:09.955Z,57.66
2023-09-13T08:27:36.656Z,56.79
2023-09-13T08:30:03.712Z,57.22
2023-09-13T08:32:30.415Z,56.80
2023-09-13T08:34:58.444Z,57.67
2023-09-13T08:37:25.274Z,57.98
2023-09-13T08:39:51.954Z,58.59
2023-09-13T08:42:18.746Z,58.93
2023-09-13T08:44:45.419Z,59.10
2023-09-13T08:47:12.107Z,58.44
2023-09-13T08:49:38.811Z,58.36
2023-09-13T08:52:07.015Z,58.37
2023-09-13T08:54:47.606Z,58.40
2023-09-13T08:57:18.713Z,58.78
2023-09-13T08:59:45.409Z,58.55
2023-09-13T09:02:15.726Z,57.91
2023-09-13T09:04:42.572Z,59.16
2023-09-13T09:07:10.565Z,60.36
2023-09-13T09:09:37.256Z,58.81
2023-09-13T09:12:04.552Z,58.44
2023-09-13T09:14:32.324Z,58.35
2023-09-13T09:16:59.617Z,58.48
2023-09-13T09:19:26.335Z,58.28
2023-09-13T09:21:53.016Z,58.45
2023-09-13T09:24:21.040Z,58.62
2023-09-13T09:26:47.699Z,58.41
2023-09-13T09:29:15.391Z,57.97
2023-09-13T09:31:42.216Z,58.93
2023-09-13T09:34:09.713Z,58.40
2023-09-13T09:36:43.197Z,58.96
2023-09-13T09:39:09.874Z,58.81
2023-09-13T09:41:38.684Z,58.79
2023-09-13T09:44:05.829Z,58.66
2023-09-13T09:46:32.978Z,58.85
2023-09-13T09:48:59.980Z,59.22
2023-09-13T09:51:26.688Z,59.11
2023-09-13T09:53:53.349Z,60.23
2023-09-13T09:56:20.075Z,60.70
2023-09-13T09:58:48.281Z,60.29
2023-09-13T10:01:15.197Z,59.62
2023-09-13T10:03:41.983Z,59.84
2023-09-13T10:06:10.435Z,58.97
2023-09-13T10:08:41.983Z,59.62
2023-09-13T10:11:11.218Z,59.01
2023-09-13T10:13:38.649Z,58.12
2023-09-13T10:16:07.733Z,59.24
2023-09-13T10:18:37.798Z,59.50
2023-09-13T10:21:04.941Z,58.82
2023-09-13T10:23:38.348Z,58.44
2023-09-13T10:26:05.073Z,57.86
2023-09-13T10:28:31.909Z,58.18
2023-09-13T10:30:58.684Z,57.86
2023-09-13T10:33:26.741Z,58.55
2023-09-13T10:35:53.433Z,59.25
2023-09-13T10:38:23.005Z,60.26
2023-09-13T10:40:51.757Z,60.65
2023-09-13T10:43:18.577Z,59.62
2023-09-13T10:45:45.355Z,59.09
2023-09-13T10:48:12.022Z,58.71
2023-09-13T10:50:40.052Z,58.49
2023-09-13T10:53:06.793Z,57.57
2023-09-13T10:55:33.604Z,58.16
2023-09-13T10:58:00.321Z,58.04
2023-09-13T11:00:27.276Z,58.43
2023-09-13T11:02:54.055Z,58.93
2023-09-13T11:05:20.857Z,59.76
2023-09-13T11:07:49.088Z,59.39
2023-09-13T11:10:16.376Z,58.60
2023-09-13T11:12:43.129Z,59.44
2023-09-13T11:15:13.437Z,59.36
2023-09-13T11:17:40.887Z,60.07
2023-09-13T11:20:24.247Z,61.13
2023-09-13T11:23:02.245Z,61.08
2023-09-13T11:25:31.798Z,61.09
2023-09-13T11:27:58.466Z,61.70
2023-09-13T11:30:47.449Z,61.10
2023-09-13T11:33:14.258Z,62.24
2023-09-13T11:35:40.924Z,61.16
2023-09-13T11:38:09.040Z,61.35
2023-09-13T11:40:35.788Z,60.96
2023-09-13T11:43:05.284Z,59.62
2023-09-13T11:45:34.797Z,59.80
2023-09-13T11:48:02.920Z,60.14
2023-09-13T11:50:47.357Z,60.00
2023-09-13T11:53:16.811Z,59.36
2023-09-13T11:55:58.372Z,59.23
2023-09-13T11:58:36.427Z,59.02
2023-09-13T12:01:10.730Z,59.03
2023-09-13T12:04:13.097Z,60.85
2023-09-13T12:06:32.621Z,61.22
2023-09-13T12:09:14.440Z,61.25
2023-09-13T12:11:44.912Z,61.70
2023-09-13T12:14:22.412Z,61.50
2023-09-13T12:16:57.153Z,62.13
2023-09-13T12:19:24.648Z,61.29
2023-09-13T12:21:51.382Z,61.16
2023-09-13T12:24:25.336Z,61.57
2023-09-13T12:26:52.112Z,61.31
2023-09-13T12:29:18.754Z,61.02
2023-09-13T12:31:45.514Z,61.50
2023-09-13T12:34:12.230Z,62.28
2023-09-13T12:36:40.182Z,61.70
2023-09-13T12:39:15.874Z,61.23
2023-09-13T12:41:47.053Z,61.42
2023-09-13T12:44:13.718Z,60.31
2023-09-13T12:46:40.442Z,61.46
2023-09-13T12:49:07.218Z,61.25
2023-09-13T12:51:33.930Z,62.63
2023-09-13T12:54:00.997Z,64.02
2023-09-13T12:56:27.715Z,64.10
2023-09-13T12:58:56.305Z,63.57
2023-09-13T13:01:23.348Z,62.96
2023-09-13T13:03:57.475Z,62.60
2023-09-13T13:06:24.287Z,62.77
2023-09-13T13:08:50.972Z,61.98
2023-09-13T13:11:17.621Z,63.16
2023-09-13T13:13:44.502Z,63.80
2023-09-13T13:16:16.298Z,63.93
2023-09-13T13:18:54.185Z,63.86
2023-09-13T13:21:37.513Z,63.29
2023-09-13T13:24:06.516Z,63.84
2023-09-13T13:26:33.353Z,63.77
2023-09-13T13:29:00.021Z,63.20
2023-09-13T13:31:28.073Z,64.04
2023-09-13T13:33:54.777Z,63.79
2023-09-13T13:36:21.673Z,64.19
2023-09-13T13:38:48.318Z,64.12
2023-09-13T13:41:14.997Z,64.09
2023-09-13T13:43:41.784Z,62.88
2023-09-13T13:46:09.457Z,62.97
2023-09-13T13:48:37.552Z,61.46
2023-09-13T13:51:04.563Z,61.62
2023-09-13T13:53:31.340Z,61.35
2023-09-13T13:55:58.022Z,61.02
2023-09-13T13:58:24.667Z,61.86
2023-09-13T14:00:51.526Z,60.55
2023-09-13T14:03:18.354Z,61.03
2023-09-13T14:05:48.232Z,61.63
2023-09-13T14:08:17.651Z,60.47
2023-09-13T14:10:44.330Z,60.17
2023-09-13T14:13:14.064Z,59.79
2023-09-13T14:15:41.122Z,60.14
2023-09-13T14:18:07.946Z,60.78
2023-09-13T14:20:34.686Z,61.42
2023-09-13T14:23:02.743Z,60.97
2023-09-13T14:25:29.445Z,61.34
2023-09-13T14:28:09.367Z,61.50
2023-09-13T14:30:37.197Z,61.20
2023-09-13T14:33:04.386Z,60.58
2023-09-13T14:35:31.092Z,60.74
2023-09-13T14:37:57.839Z,61.26
2023-09-13T14:40:26.399Z,61.33
2023-09-13T14:42:53.156Z,61.01
2023-09-13T14:45:19.908Z,62.12
2023-09-13T14:47:46.943Z,61.95
2023-09-13T14:50:13.977Z,63.23
2023-09-13T14:52:40.638Z,62.73
2023-09-13T14:55:08.267Z,62.93
2023-09-13T14:57:37.399Z,62.71
2023-09-13T15:00:05.805Z,62.29
2023-09-13T15:02:32.580Z,63.04
2023-09-13T15:04:59.323Z,64.11
2023-09-13T15:07:25.971Z,62.66
2023-09-13T15:09:52.724Z,62.01
2023-09-13T15:12:19.520Z,61.29
2023-09-13T15:14:47.602Z,61.77
2023-09-13T15:17:14.265Z,61.38
2023-09-13T15:19:41.059Z,61.13
2023-09-13T15:22:07.782Z,60.65
2023-09-13T15:24:34.658Z,61.03
2023-09-13T15:27:01.405Z,60.38
2023-09-13T15:29:28.222Z,60.90
2023-09-13T15:34:25.885Z,61.38
2023-09-13T15:36:52.569Z,60.67
2023-09-13T15:39:19.387Z,61.24
2023-09-13T15:41:46.090Z,60.51
2023-09-13T15:44:12.832Z,60.14
2023-09-13T15:46:39.586Z,59.97
2023-09-13T15:49:07.606Z,59.47
2023-09-13T15:51:34.264Z,60.34
2023-09-13T15:54:00.937Z,59.93
2023-09-13T15:56:27.599Z,60.16
2023-09-13T15:58:54.291Z,60.46
2023-09-13T16:01:20.997Z,60.30
2023-09-13T16:03:47.796Z,60.78
2023-09-13T16:06:16.149Z,60.43
2023-09-13T16:08:43.022Z,60.45
2023-09-13T16:11:10.016Z,59.51
2023-09-13T16:13:36.777Z,59.82
2023-09-13T16:16:03.659Z,60.23
2023-09-13T16:18:30.458Z,60.84
2023-09-13T16:20:57.409Z,60.36
2023-09-13T16:23:25.400Z,60.03
2023-09-13T16:25:52.053Z,59.82
2023-09-13T16:28:18.747Z,59.35
2023-09-13T16:30:45.454Z,59.86
2023-09-13T16:33:12.268Z,59.79
2023-09-13T16:35:38.951Z,60.43
2023-09-13T16:38:06.528Z,59.62
2023-09-13T16:40:34.583Z,60.34
2023-09-13T16:43:01.296Z,60.64
2023-09-13T16:45:28.109Z,60.19
2023-09-13T16:47:54.861Z,60.85
2023-09-13T16:50:21.613Z,60.44
2023-09-13T16:52:48.297Z,60.92
2023-09-13T16:55:14.984Z,60.47
2023-09-13T16:57:43.046Z,61.00
2023-09-13T17:00:10.044Z,60.43
2023-09-13T17:02:36.804Z,59.63
2023-09-13T17:05:03.846Z,59.77
2023-09-13T17:07:30.546Z,59.68
2023-09-13T17:09:57.272Z,60.87
2023-09-13T17:12:24.057Z,60.84
2023-09-13T17:14:52.122Z,60.81
2023-09-13T17:17:19.148Z,60.60
2023-09-13T17:19:45.814Z,60.31
2023-09-13T17:22:12.568Z,60.22
2023-09-13T17:24:39.280Z,60.05
2023-09-13T17:27:10.196Z,59.55
2023-09-13T17:29:37.300Z,59.83
2023-09-13T17:32:08.492Z,60.32
2023-09-13T17:34:35.686Z,59.83
2023-09-13T17:37:02.698Z,60.14
2023-09-13T17:39:29.500Z,60.60
2023-09-13T17:41:56.217Z,60.36
2023-09-13T17:44:22.999Z,60.37
2023-09-13T17:46:49.707Z,60.01
2023-09-13T17:49:17.777Z,59.76
2023-09-13T17:51:44.550Z,59.49
2023-09-13T17:54:13.480Z,60.22
2023-09-13T17:56:40.572Z,60.13
2023-09-13T17:59:07.461Z,60.62
2023-09-13T18:01:34.232Z,59.43
2023-09-13T18:04:01.150Z,59.33
2023-09-13T18:06:29.315Z,60.03
2023-09-13T18:08:56.050Z,60.46
2023-09-13T18:11:22.736Z,60.02
2023-09-13T18:13:49.417Z,60.47
2023-09-13T18:16:16.102Z,60.61
2023-09-13T18:18:42.960Z,60.60
2023-09-13T18:21:09.861Z,61.18
2023-09-13T18:23:37.868Z,61.19
2023-09-13T18:26:04.550Z,61.23
2023-09-13T18:28:31.305Z,60.78
2023-09-13T18:31:04.379Z,61.16
2023-09-13T18:33:31.170Z,61.14
2023-09-13T18:35:58.054Z,61.16
2023-09-13T18:38:24.809Z,61.21
2023-09-13T18:40:52.836Z,61.33
2023-09-13T18:43:19.537Z,61.70
2023-09-13T18:45:46.246Z,61.65
2023-09-13T18:48:12.956Z,60.95
2023-09-13T18:50:39.700Z,60.58
2023-09-13T18:53:06.413Z,61.35
2023-09-13T18:55:33.081Z,60.86
2023-09-13T18:58:01.119Z,61.18
2023-09-13T19:00:27.844Z,60.73
2023-09-13T19:02:56.878Z,60.44
2023-09-13T19:05:23.760Z,61.10
2023-09-13T19:07:50.462Z,61.75
2023-09-13T19:10:17.997Z,61.65
2023-09-13T19:12:44.713Z,60.68
2023-09-13T19:15:13.089Z,60.94
2023-09-13T19:17:39.821Z,61.08
2023-09-13T19:20:08.182Z,61.49
2023-09-13T19:22:34.917Z,61.39
2023-09-13T19:25:01.809Z,61.92
2023-09-13T19:27:28.565Z,61.66
2023-09-13T19:29:55.275Z,61.37
2023-09-13T19:32:23.377Z,62.08
2023-09-13T19:34:50.085Z,61.52
2023-09-13T19:37:16.728Z,61.89
2023-09-13T19:39:43.936Z,61.93
2023-09-13T19:42:10.675Z,61.45
2023-09-13T19:44:37.368Z,62.06
2023-09-13T19:47:04.454Z,61.62
2023-09-13T19:49:32.526Z,61.49
2023-09-13T19:51:59.318Z,61.79
2023-09-13T19:54:26.009Z,62.59
2023-09-13T19:56:52.708Z,62.16
2023-09-13T19:59:19.424Z,61.94
2023-09-13T20:01:46.227Z,61.18
2023-09-13T20:04:13.006Z,61.67
2023-09-13T20:06:41.098Z,61.21
2023-09-13T20:09:07.809Z,62.10
2023-09-13T20:11:41.167Z,61.93
2023-09-13T20:14:07.851Z,61.85
2023-09-13T20:16:34.552Z,61.55
2023-09-13T20:19:01.317Z,61.73
2023-09-13T20:21:28.083Z,61.43
2023-09-13T20:23:56.149Z,61.41
2023-09-13T20:26:23.314Z,61.44
2023-09-13T20:28:50.076Z,61.73
2023-09-13T20:31:16.827Z,61.69
2023-09-13T20:33:43.552Z,61.73
2023-09-13T20:36:10.332Z,61.30
2023-09-13T20:38:36.973Z,61.18
2023-09-13T20:41:04.985Z,61.70
2023-09-13T20:43:31.644Z,61.69
2023-09-13T20:45:58.457Z,61.73
2023-09-13T20:48:25.168Z,61.41
2023-09-13T20:50:51.888Z,62.33
2023-09-13T20:53:18.541Z,61.94
2023-09-13T20:55:45.239Z,62.22
2023-09-13T20:58:13.245Z,62.75
2023-09-13T21:00:40.238Z,62.54
2023-09-13T21:03:07.099Z,62.19
2023-09-13T21:05:33.881Z,61.98
2023-09-13T21:08:00.556Z,62.31
2023-09-13T21:10:27.435Z,61.97
2023-09-13T21:12:54.294Z,62.11
2023-09-13T21:15:22.378Z,62.06
2023-09-13T21:17:49.219Z,61.96
2023-09-13T21:20:16.117Z,61.93
2023-09-13T21:22:43.715Z,62.03
2023-09-13T21:25:10.613Z,61.97
2023-09-13T21:27:37.283Z,62.21
2023-09-13T21:32:33.902Z,61.68
2023-09-13T21:35:02.892Z,61.10
2023-09-13T21:37:33.506Z,60.67
2023-09-13T21:40:01.256Z,61.27
2023-09-13T21:42:28.000Z,61.05
2023-09-13T21:44:55.210Z,60.73
2023-09-13T21:47:21.972Z,61.16
2023-09-13T21:49:49.996Z,60.46
2023-09-13T21:52:16.667Z,60.33
2023-09-13T21:54:47.010Z,60.73
2023-09-13T21:57:13.722Z,60.63
2023-09-13T21:59:40.415Z,60.62
2023-09-13T22:02:07.284Z,61.35
2023-09-13T22:04:34.106Z,61.11
2023-09-13T22:07:02.299Z,60.58
2023-09-13T22:09:29.115Z,60.33
2023-09-13T22:11:55.864Z,60.07
2023-09-13T22:14:22.592Z,60.60
2023-09-13T22:16:49.462Z,60.43
2023-09-13T22:19:16.225Z,60.39
2023-09-13T22:21:43.021Z,60.11
2023-09-13T22:24:11.116Z,60.58
2023-09-13T22:26:37.870Z,60.79
2023-09-13T22:29:04.629Z,60.94
2023-09-13T22:31:31.401Z,61.14
2023-09-13T22:33:58.210Z,61.11
2023-09-13T22:36:25.014Z,60.94
2023-09-13T22:39:02.706Z,61.07
2023-09-13T22:41:37.315Z,61.63
2023-09-13T22:44:04.222Z,61.06
2023-09-13T22:46:31.060Z,61.97
2023-09-13T22:48:57.924Z,61.76
2023-09-13T22:51:24.685Z,62.02
2023-09-13T22:53:51.427Z,62.67
2023-09-13T22:56:18.298Z,62.42
2023-09-13T22:58:46.628Z,62.57
2023-09-13T23:01:13.593Z,62.79
2023-09-13T23:03:45.149Z,62.51
2023-09-13T23:06:12.425Z,62.43
2023-09-13T23:08:39.372Z,62.37
2023-09-13T23:11:06.063Z,62.74
2023-09-13T23:13:32.729Z,62.59
2023-09-13T23:16:01.816Z,62.51
2023-09-13T23:18:28.530Z,61.90
2023-09-13T23:20:55.248Z,62.48
2023-09-13T23:23:21.991Z,63.17
2023-09-13T23:25:57.843Z,62.73
2023-09-13T23:28:24.631Z,62.54
2023-09-13T23:30:51.466Z,62.64
2023-09-13T23:33:19.501Z,62.83
2023-09-13T23:35:46.188Z,62.32
2023-09-13T23:38:12.877Z,62.28
2023-09-13T23:40:39.529Z,61.89
2023-09-13T23:43:06.231Z,61.46
2023-09-13T23:45:33.077Z,61.15
2023-09-13T23:47:59.843Z,60.60
2023-09-13T23:50:27.850Z,61.02
2023-09-13T23:52:54.529Z,60.70
2023-09-13T23:55:21.168Z,61.47
2023-09-13T23:57:47.866Z,61.84
